createdAt,value
2017-11-15T00:02:01.966Z,28.55
2017-11-15T00:04:29.502Z,28.60
2017-11-15T00:06:57.066Z,26.33
2017-11-15T00:09:24.607Z,26.12
2017-11-15T00:11:52.197Z,28.00
2017-11-15T00:14:19.739Z,27.08
2017-11-15T00:16:47.294Z,27.23
2017-11-15T00:19:14.850Z,39.83
2017-11-15T00:21:42.415Z,30.23
2017-11-15T00:24:09.958Z,28.08
2017-11-15T00:26:37.537Z,27.85
2017-11-15T00:29:05.081Z,33.85
2017-11-15T00:31:32.621Z,31.75
2017-11-15T00:34:00.947Z,35.08
2017-11-15T00:36:28.478Z,33.75
2017-11-15T00:38:56.045Z,32.13
2017-11-15T00:41:23.588Z,31.00
2017-11-15T00:43:51.187Z,30.85
2017-11-15T00:46:18.737Z,37.17
2017-11-15T00:48:46.279Z,31.70
2017-11-15T00:51:13.865Z,49.30
2017-11-15T00:53:41.413Z,35.20
2017-11-15T00:56:08.980Z,28.10
2017-11-15T00:58:36.538Z,54.47
2017-11-15T01:01:04.088Z,32.33
2017-11-15T01:03:31.655Z,41.75
2017-11-15T01:05:59.198Z,27.73
2017-11-15T01:08:26.781Z,36.78
2017-11-15T01:10:54.354Z,32.80
2017-11-15T01:13:21.894Z,35.53
2017-11-15T01:15:49.454Z,34.17
2017-11-15T01:18:17.028Z,30.00
2017-11-15T01:20:45.362Z,37.70
2017-11-15T01:23:12.907Z,32.38
2017-11-15T01:25:40.463Z,33.20
2017-11-15T01:28:08.024Z,40.75
2017-11-15T01:30:35.566Z,32.03
2017-11-15T01:33:03.137Z,40.55
2017-11-15T01:35:30.682Z,37.47
2017-11-15T01:37:58.261Z,36.42
2017-11-15T01:40:25.807Z,41.08
2017-11-15T01:42:53.382Z,42.62
2017-11-15T01:45:20.939Z,40.28
2017-11-15T01:47:48.522Z,33.90
2017-11-15T01:50:16.081Z,32.00
2017-11-15T01:52:43.631Z,26.05
2017-11-15T01:55:11.187Z,30.15
2017-11-15T01:57:38.737Z,31.67
2017-11-15T02:00:06.308Z,25.75
2017-11-15T02:02:33.860Z,22.95
2017-11-15T02:05:01.436Z,21.95
2017-11-15T02:07:28.996Z,24.00
2017-11-15T02:09:56.573Z,25.25
2017-11-15T02:12:24.163Z,24.67
2017-11-15T02:14:52.478Z,23.10
2017-11-15T02:17:20.046Z,23.52
2017-11-15T02:19:47.599Z,24.33
2017-11-15T02:22:15.158Z,25.98
2017-11-15T02:24:42.719Z,26.67
2017-11-15T02:27:10.273Z,24.48
2017-11-15T02:29:37.840Z,25.80
2017-11-15T02:32:05.420Z,22.70
2017-11-15T02:34:32.958Z,21.92
2017-11-15T02:37:00.558Z,21.00
2017-11-15T02:39:28.147Z,23.23
2017-11-15T02:41:56.445Z,25.17
2017-11-15T02:44:24.017Z,25.17
2017-11-15T02:46:51.570Z,25.27
2017-11-15T02:49:19.133Z,26.80
2017-11-15T02:51:46.706Z,24.23
2017-11-15T02:54:14.260Z,21.87
2017-11-15T02:56:41.816Z,20.70
2017-11-15T02:59:09.480Z,20.67
2017-11-15T03:01:37.035Z,20.77
2017-11-15T03:04:04.607Z,19.58
2017-11-15T03:06:32.147Z,18.87
2017-11-15T03:08:59.681Z,18.55
2017-11-15T03:11:27.339Z,19.33
2017-11-15T03:13:55.667Z,19.60
2017-11-15T03:16:23.239Z,19.27
2017-11-15T03:18:50.815Z,18.73
2017-11-15T03:21:18.347Z,20.10
2017-11-15T03:23:45.909Z,19.15
2017-11-15T03:26:13.453Z,17.08
2017-11-15T03:28:41.015Z,18.58
2017-11-15T03:31:08.565Z,19.50
2017-11-15T03:33:36.132Z,21.98
2017-11-15T03:36:03.694Z,19.27
2017-11-15T03:38:31.238Z,18.55
2017-11-15T03:40:58.814Z,19.62
2017-11-15T03:43:26.372Z,19.92
2017-11-15T03:45:53.917Z,22.40
2017-11-15T03:48:21.483Z,21.75
2017-11-15T03:50:49.052Z,20.65
2017-11-15T03:53:16.628Z,18.40
2017-11-15T03:55:44.178Z,19.67
2017-11-15T03:58:11.752Z,17.77
2017-11-15T04:00:39.294Z,18.27
2017-11-15T04:03:06.852Z,18.30
2017-11-15T04:05:34.438Z,17.58
2017-11-15T04:08:02.001Z,16.58
2017-11-15T04:10:29.561Z,15.40
2017-11-15T04:12:57.127Z,17.15
2017-11-15T04:15:24.681Z,15.20
2017-11-15T04:17:53.727Z,14.87
2017-11-15T04:20:21.284Z,16.62
2017-11-15T04:22:48.841Z,20.30
2017-11-15T04:25:16.394Z,14.68
2017-11-15T04:27:44.701Z,15.32
2017-11-15T04:30:12.258Z,16.08
2017-11-15T04:32:39.798Z,16.85
2017-11-15T04:35:07.362Z,16.50
2017-11-15T04:37:34.907Z,18.70
2017-11-15T04:40:02.437Z,18.75
2017-11-15T04:42:29.998Z,19.45
2017-11-15T04:44:57.553Z,22.55
2017-11-15T04:47:25.233Z,24.20
2017-11-15T04:49:52.808Z,21.55
2017-11-15T04:52:20.374Z,25.30
2017-11-15T04:54:47.925Z,27.23
2017-11-15T04:57:15.491Z,23.40
2017-11-15T04:59:43.032Z,23.08
2017-11-15T05:02:10.588Z,23.75
2017-11-15T05:04:38.120Z,27.40
2017-11-15T05:07:06.454Z,32.88
2017-11-15T05:09:34.022Z,26.42
2017-11-15T05:12:01.616Z,25.60
2017-11-15T05:14:30.525Z,26.12
2017-11-15T05:16:58.070Z,24.85
2017-11-15T05:19:26.420Z,27.00
2017-11-15T05:21:53.960Z,23.65
2017-11-15T05:24:21.525Z,22.42
2017-11-15T05:26:49.080Z,18.92
2017-11-15T05:29:16.625Z,20.70
2017-11-15T05:31:44.187Z,19.77
2017-11-15T05:34:11.738Z,18.40
2017-11-15T05:36:39.290Z,20.95
2017-11-15T05:39:06.833Z,20.67
2017-11-15T05:41:34.383Z,18.67
2017-11-15T05:44:02.706Z,19.67
2017-11-15T05:46:30.268Z,20.65
2017-11-15T05:48:57.797Z,18.15
2017-11-15T05:51:25.368Z,20.65
2017-11-15T05:53:52.932Z,22.08
2017-11-15T05:56:20.515Z,20.58
2017-11-15T05:58:48.075Z,18.62
2017-11-15T06:01:15.646Z,19.42
2017-11-15T06:03:43.195Z,22.77
2017-11-15T06:06:10.759Z,20.85
2017-11-15T06:08:38.431Z,21.23
2017-11-15T06:11:06.088Z,18.23
2017-11-15T06:13:33.632Z,16.73
2017-11-15T06:16:01.232Z,17.48
2017-11-15T06:18:28.804Z,16.67
2017-11-15T06:20:56.434Z,16.80
2017-11-15T06:23:24.013Z,15.13
2017-11-15T06:25:51.556Z,15.85
2017-11-15T06:28:19.124Z,17.42
2017-11-15T06:30:46.706Z,15.00
2017-11-15T06:33:14.313Z,14.87
2017-11-15T06:35:42.534Z,14.77
2017-11-15T06:38:10.072Z,14.70
2017-11-15T06:40:37.633Z,12.45
2017-11-15T06:43:05.178Z,13.90
2017-11-15T06:45:32.738Z,15.25
2017-11-15T06:48:00.295Z,13.57
2017-11-15T06:50:27.831Z,14.05
2017-11-15T06:52:56.163Z,14.77
2017-11-15T06:55:23.707Z,15.68
2017-11-15T06:57:51.286Z,13.38
2017-11-15T07:00:18.822Z,13.62
2017-11-15T07:02:46.370Z,13.98
2017-11-15T07:05:14.703Z,13.07
2017-11-15T07:07:42.274Z,13.90
2017-11-15T07:10:09.830Z,13.90
2017-11-15T07:12:37.410Z,14.40
2017-11-15T07:15:05.742Z,14.98
2017-11-15T07:17:33.278Z,13.45
2017-11-15T07:20:00.851Z,14.05
2017-11-15T07:22:28.389Z,15.85
2017-11-15T07:24:55.954Z,18.37
2017-11-15T07:27:23.527Z,15.70
2017-11-15T07:29:51.087Z,14.77
2017-11-15T07:32:19.234Z,14.35
2017-11-15T07:34:47.559Z,12.27
2017-11-15T07:37:15.120Z,9.93
2017-11-15T07:39:42.677Z,13.62
2017-11-15T07:42:10.243Z,12.63
2017-11-15T07:44:37.779Z,10.75
2017-11-15T07:47:05.320Z,12.00
2017-11-15T07:49:32.887Z,11.95
2017-11-15T07:52:00.465Z,9.30
2017-11-15T07:54:28.058Z,10.75
2017-11-15T07:56:55.646Z,10.05
2017-11-15T07:59:23.953Z,9.98
2017-11-15T08:01:51.494Z,11.70
2017-11-15T08:04:19.055Z,11.75
2017-11-15T08:06:46.602Z,13.37
2017-11-15T08:09:14.172Z,14.20
2017-11-15T08:11:41.714Z,9.90
2017-11-15T08:14:10.056Z,11.90
2017-11-15T08:16:37.592Z,9.50
2017-11-15T08:19:05.132Z,10.30
2017-11-15T08:21:32.711Z,10.63
2017-11-15T08:24:00.282Z,11.00
2017-11-15T08:26:27.836Z,9.30
2017-11-15T08:28:55.374Z,10.57
2017-11-15T08:31:22.934Z,11.83
2017-11-15T08:33:50.475Z,11.40
2017-11-15T08:36:18.796Z,12.10
2017-11-15T08:38:46.342Z,10.30
2017-11-15T08:41:13.882Z,10.77
2017-11-15T08:43:41.453Z,10.70
2017-11-15T08:46:08.989Z,10.90
2017-11-15T08:48:37.322Z,10.60
2017-11-15T08:51:04.865Z,11.97
2017-11-15T08:53:32.425Z,11.30
2017-11-15T08:55:59.966Z,12.07
2017-11-15T08:58:27.526Z,11.83
2017-11-15T09:00:55.073Z,11.20
2017-11-15T09:03:22.646Z,11.07
2017-11-15T09:05:50.206Z,11.70
2017-11-15T09:08:17.759Z,10.73
2017-11-15T09:10:45.321Z,12.53
2017-11-15T09:13:12.894Z,9.87
2017-11-15T09:15:40.570Z,11.00
2017-11-15T09:18:08.114Z,11.05
2017-11-15T09:20:35.708Z,10.95
2017-11-15T09:23:03.248Z,10.02
2017-11-15T09:25:30.827Z,10.50
2017-11-15T09:27:58.377Z,10.30
2017-11-15T09:30:25.933Z,10.85
2017-11-15T09:32:53.508Z,10.23
2017-11-15T09:35:21.066Z,10.98
2017-11-15T09:37:48.669Z,11.00
2017-11-15T09:40:17.007Z,10.10
2017-11-15T09:42:44.554Z,9.75
2017-11-15T09:45:12.107Z,12.27
2017-11-15T09:47:39.652Z,9.67
2017-11-15T09:50:07.207Z,10.10
2017-11-15T09:52:34.794Z,9.90
2017-11-15T09:55:02.333Z,10.40
2017-11-15T09:57:29.929Z,10.90
2017-11-15T09:59:57.471Z,11.10
2017-11-15T10:02:25.027Z,10.60
2017-11-15T10:04:52.571Z,10.90
2017-11-15T10:07:20.270Z,11.10
2017-11-15T10:09:47.815Z,11.13
2017-11-15T10:12:15.373Z,11.50
2017-11-15T10:14:42.926Z,11.10
2017-11-15T10:17:10.485Z,11.90
2017-11-15T10:19:38.041Z,10.17
2017-11-15T10:22:05.574Z,10.30
2017-11-15T10:24:33.901Z,11.20
2017-11-15T10:27:01.570Z,10.03
2017-11-15T10:29:29.119Z,11.30
2017-11-15T10:31:56.666Z,9.50
2017-11-15T10:34:24.225Z,10.30
2017-11-15T10:36:51.761Z,10.90
2017-11-15T10:39:19.317Z,10.23
2017-11-15T10:41:46.879Z,9.50
2017-11-15T10:44:14.430Z,7.83
2017-11-15T10:46:42.751Z,7.60
2017-11-15T10:49:10.286Z,7.03
2017-11-15T10:51:37.823Z,5.50
2017-11-15T10:54:06.147Z,6.03
2017-11-15T10:56:33.696Z,6.33
2017-11-15T10:59:01.256Z,6.30
2017-11-15T11:01:28.803Z,6.57
2017-11-15T11:03:57.005Z,7.00
2017-11-15T11:06:24.541Z,6.20
2017-11-15T11:08:52.071Z,4.93
2017-11-15T11:11:20.403Z,5.40
2017-11-15T11:13:47.960Z,6.07
2017-11-15T11:16:15.617Z,6.20
2017-11-15T11:18:43.154Z,5.27
2017-11-15T11:21:10.728Z,4.73
2017-11-15T11:23:38.286Z,4.67
2017-11-15T11:26:05.819Z,4.03
2017-11-15T11:28:34.115Z,4.37
2017-11-15T11:31:01.679Z,4.50
2017-11-15T11:33:29.211Z,4.20
2017-11-15T11:35:57.531Z,4.20
2017-11-15T11:38:25.082Z,3.67
2017-11-15T11:40:52.619Z,3.70
2017-11-15T11:43:20.178Z,4.30
2017-11-15T11:45:47.702Z,4.40
2017-11-15T11:48:15.994Z,3.67
2017-11-15T11:50:44.310Z,3.80
2017-11-15T11:53:11.860Z,5.00
2017-11-15T11:55:39.432Z,3.93
2017-11-15T11:58:06.954Z,4.80
2017-11-15T12:00:35.271Z,4.40
2017-11-15T12:03:02.807Z,4.40
2017-11-15T12:05:30.361Z,4.70
2017-11-15T12:07:57.917Z,5.47
2017-11-15T12:10:25.489Z,5.10
2017-11-15T12:12:53.032Z,5.60
2017-11-15T12:15:21.356Z,5.57
2017-11-15T12:17:48.902Z,5.77
2017-11-15T12:20:16.442Z,5.70
2017-11-15T12:22:43.974Z,6.80
2017-11-15T12:25:11.516Z,6.27
2017-11-15T12:27:39.050Z,6.57
2017-11-15T12:30:07.362Z,6.53
2017-11-15T12:32:35.021Z,5.70
2017-11-15T12:35:02.542Z,7.60
2017-11-15T12:37:30.960Z,7.20
2017-11-15T12:39:58.510Z,7.27
2017-11-15T12:42:26.067Z,7.57
2017-11-15T12:44:53.615Z,6.67
2017-11-15T12:47:21.172Z,6.10
2017-11-15T12:49:49.489Z,7.10
2017-11-15T12:52:17.065Z,6.87
2017-11-15T12:54:44.615Z,7.00
2017-11-15T12:57:12.173Z,7.50
2017-11-15T12:59:39.705Z,8.10
2017-11-15T13:02:07.259Z,7.60
2017-11-15T13:04:34.841Z,7.10
2017-11-15T13:07:02.371Z,7.67
2017-11-15T13:09:29.938Z,6.87
2017-11-15T13:11:57.510Z,7.50
2017-11-15T13:14:25.118Z,8.07
2017-11-15T13:16:53.440Z,7.70
2017-11-15T13:19:21.004Z,6.10
2017-11-15T13:21:48.561Z,6.17
2017-11-15T13:24:16.111Z,6.63
2017-11-15T13:26:43.675Z,7.00
2017-11-15T13:29:11.243Z,6.87
2017-11-15T13:31:38.774Z,6.57
2017-11-15T13:34:07.091Z,6.30
2017-11-15T13:36:34.646Z,6.47
2017-11-15T13:39:02.194Z,6.00
2017-11-15T13:41:29.731Z,7.13
2017-11-15T13:43:58.037Z,6.40
2017-11-15T13:46:25.595Z,6.10
2017-11-15T13:48:53.126Z,5.93
2017-11-15T13:51:21.466Z,6.43
2017-11-15T13:53:49.024Z,8.60
2017-11-15T13:56:16.574Z,6.27
2017-11-15T13:58:44.109Z,6.20
2017-11-15T14:01:11.661Z,6.60
2017-11-15T14:03:39.223Z,6.40
2017-11-15T14:06:07.678Z,6.50
2017-11-15T14:08:36.030Z,7.27
2017-11-15T14:11:03.574Z,5.40
2017-11-15T14:13:31.135Z,5.70
2017-11-15T14:15:58.660Z,6.23
2017-11-15T14:18:26.222Z,6.07
2017-11-15T14:20:53.911Z,5.87
2017-11-15T14:23:21.496Z,6.37
2017-11-15T14:25:50.560Z,5.60
2017-11-15T14:28:18.138Z,6.22
2017-11-15T14:30:45.686Z,6.53
2017-11-15T14:33:13.265Z,6.15
2017-11-15T14:35:40.815Z,5.93
2017-11-15T14:38:08.359Z,6.03
2017-11-15T14:40:35.919Z,6.37
2017-11-15T14:43:03.459Z,6.28
2017-11-15T14:45:31.041Z,6.57
2017-11-15T14:47:58.576Z,6.57
2017-11-15T14:50:26.150Z,5.75
2017-11-15T14:52:53.678Z,5.87
2017-11-15T14:55:22.038Z,6.87
2017-11-15T14:57:49.648Z,6.20
2017-11-15T15:00:17.194Z,6.72
2017-11-15T15:02:44.732Z,6.20
2017-11-15T15:05:13.038Z,6.25
2017-11-15T15:07:40.599Z,5.00
2017-11-15T15:10:08.125Z,5.93
2017-11-15T15:12:36.438Z,6.53
2017-11-15T15:15:03.971Z,6.40
2017-11-15T15:17:32.292Z,6.12
2017-11-15T15:19:59.823Z,6.50
2017-11-15T15:22:27.370Z,6.90
2017-11-15T15:24:55.715Z,5.90
2017-11-15T15:27:23.280Z,5.32
2017-11-15T15:29:51.128Z,5.18
2017-11-15T15:32:18.682Z,5.32
2017-11-15T15:34:46.218Z,6.35
2017-11-15T15:37:14.539Z,5.35
2017-11-15T15:39:42.100Z,5.32
2017-11-15T15:42:09.651Z,6.57
2017-11-15T15:44:37.196Z,6.50
2017-11-15T15:47:04.745Z,6.35
2017-11-15T15:49:33.036Z,6.22
2017-11-15T15:52:01.549Z,5.90
2017-11-15T15:54:29.092Z,5.45
2017-11-15T15:56:56.636Z,6.87
2017-11-15T15:59:24.926Z,6.15
2017-11-15T16:01:52.473Z,7.68
2017-11-15T16:04:20.021Z,5.72
2017-11-15T16:06:48.336Z,6.25
2017-11-15T16:09:15.914Z,6.78
2017-11-15T16:11:43.438Z,5.85
2017-11-15T16:14:11.014Z,6.10
2017-11-15T16:16:38.547Z,7.07
2017-11-15T16:19:06.094Z,7.20
2017-11-15T16:21:34.426Z,8.30
2017-11-15T16:24:01.946Z,7.32
2017-11-15T16:26:29.507Z,7.43
2017-11-15T16:28:57.056Z,6.65
2017-11-15T16:31:25.399Z,7.85
2017-11-15T16:33:53.722Z,9.50
2017-11-15T16:36:21.299Z,6.80
2017-11-15T16:38:48.858Z,6.57
2017-11-15T16:41:16.434Z,6.60
2017-11-15T16:43:43.980Z,7.72
2017-11-15T16:46:11.528Z,8.00
2017-11-15T16:48:39.121Z,13.35
2017-11-15T16:51:06.687Z,11.88
2017-11-15T16:53:34.255Z,9.60
2017-11-15T16:56:01.790Z,9.38
2017-11-15T16:58:29.353Z,10.45
2017-11-15T17:00:56.914Z,7.40
2017-11-15T17:03:24.462Z,9.38
2017-11-15T17:05:52.047Z,7.90
2017-11-15T17:08:19.618Z,8.60
2017-11-15T17:10:48.674Z,8.15
2017-11-15T17:13:16.245Z,7.85
2017-11-15T17:15:43.791Z,9.60
2017-11-15T17:18:11.358Z,10.43
2017-11-15T17:20:38.917Z,12.37
2017-11-15T17:23:07.593Z,12.37
2017-11-15T17:25:35.177Z,11.05
2017-11-15T17:28:02.711Z,10.82
2017-11-15T17:30:30.260Z,10.88
2017-11-15T17:32:57.839Z,12.57
2017-11-15T17:35:25.454Z,8.90
2017-11-15T17:37:53.005Z,7.85
2017-11-15T17:40:20.602Z,8.73
2017-11-15T17:42:48.165Z,9.15
2017-11-15T17:45:15.708Z,10.45
2017-11-15T17:47:43.290Z,9.05
2017-11-15T17:50:10.826Z,9.23
2017-11-15T17:52:38.362Z,10.73
2017-11-15T17:55:05.944Z,10.18
2017-11-15T17:57:33.509Z,10.98
2017-11-15T18:00:01.094Z,9.63
2017-11-15T18:02:30.129Z,11.07
2017-11-15T18:04:57.690Z,12.27
2017-11-15T18:07:25.259Z,12.07
2017-11-15T18:09:52.840Z,12.52
2017-11-15T18:12:20.412Z,12.88
2017-11-15T18:14:47.982Z,15.23
2017-11-15T18:17:15.564Z,18.15
2017-11-15T18:19:43.091Z,17.17
2017-11-15T18:22:10.657Z,16.77
2017-11-15T18:24:38.231Z,13.43
2017-11-15T18:27:05.787Z,14.10
2017-11-15T18:29:33.348Z,13.30
2017-11-15T18:32:01.014Z,15.48
2017-11-15T18:34:28.947Z,14.98
2017-11-15T18:36:56.917Z,14.00
2017-11-15T18:39:25.707Z,16.40
2017-11-15T18:41:53.776Z,15.80
2017-11-15T18:44:21.738Z,15.10
2017-11-15T18:46:50.446Z,15.80
2017-11-15T18:49:19.239Z,15.10
2017-11-15T18:51:48.031Z,16.12
2017-11-15T18:54:16.809Z,15.80
2017-11-15T18:56:44.696Z,15.65
2017-11-15T18:59:14.898Z,15.45
2017-11-15T19:01:43.687Z,16.67
2017-11-15T19:04:11.860Z,17.37
2017-11-15T19:06:40.669Z,13.93
2017-11-15T19:09:09.342Z,11.98
2017-11-15T19:11:38.226Z,11.05
2017-11-15T19:14:06.194Z,9.55
2017-11-15T19:16:34.270Z,10.77
2017-11-15T19:19:02.237Z,11.05
2017-11-15T19:21:30.206Z,11.00
2017-11-15T19:23:58.177Z,9.98
2017-11-15T19:26:26.248Z,11.30
2017-11-15T19:28:54.320Z,10.90
2017-11-15T19:31:22.391Z,10.05
2017-11-15T19:33:51.195Z,10.43
2017-11-15T19:36:19.980Z,10.25
2017-11-15T19:38:47.941Z,10.73
2017-11-15T19:41:16.120Z,10.60
2017-11-15T19:43:44.903Z,10.93
2017-11-15T19:46:12.979Z,10.88
2017-11-15T19:48:41.866Z,13.20
2017-11-15T19:51:09.936Z,12.95
2017-11-15T19:53:38.010Z,14.20
2017-11-15T19:56:06.804Z,12.82
2017-11-15T19:58:34.767Z,12.18
2017-11-15T20:01:02.744Z,11.70
2017-11-15T20:03:33.367Z,11.55
2017-11-15T20:06:01.380Z,10.73
2017-11-15T20:08:29.412Z,12.52
2017-11-15T20:10:58.206Z,12.18
2017-11-15T20:13:26.986Z,12.88
2017-11-15T20:15:55.063Z,14.02
2017-11-15T20:18:23.948Z,12.57
2017-11-15T20:20:52.635Z,13.30
2017-11-15T20:23:20.607Z,12.60
2017-11-15T20:25:48.576Z,14.13
2017-11-15T20:28:16.545Z,12.98
2017-11-15T20:30:44.521Z,12.00
2017-11-15T20:33:13.230Z,11.85
2017-11-15T20:35:41.660Z,11.68
2017-11-15T20:38:09.236Z,13.43
2017-11-15T20:40:36.865Z,13.88
2017-11-15T20:43:05.182Z,13.65
2017-11-15T20:45:33.786Z,12.20
2017-11-15T20:48:01.315Z,11.65
2017-11-15T20:50:28.917Z,14.98
2017-11-15T20:52:56.511Z,15.00
2017-11-15T20:55:24.827Z,15.48
2017-11-15T20:57:52.402Z,15.40
2017-11-15T21:00:20.012Z,15.55
2017-11-15T21:02:47.631Z,19.08
2017-11-15T21:05:15.173Z,16.17
2017-11-15T21:07:42.744Z,19.08
2017-11-15T21:10:10.388Z,17.70
2017-11-15T21:12:37.959Z,19.30
2017-11-15T21:15:05.712Z,16.17
2017-11-15T21:17:33.287Z,17.75
2017-11-15T21:20:00.861Z,16.58
2017-11-15T21:22:28.407Z,16.75
2017-11-15T21:24:55.966Z,19.95
2017-11-15T21:27:23.559Z,17.10
2017-11-15T21:29:51.130Z,17.02
2017-11-15T21:32:19.465Z,16.55
2017-11-15T21:34:47.036Z,16.98
2017-11-15T21:37:14.672Z,16.02
2017-11-15T21:39:42.247Z,16.55
2017-11-15T21:42:09.799Z,15.27
2017-11-15T21:44:37.526Z,15.93
2017-11-15T21:47:05.849Z,14.68
2017-11-15T21:49:33.419Z,14.85
2017-11-15T21:52:00.978Z,15.98
2017-11-15T21:54:28.536Z,15.90
2017-11-15T21:56:56.071Z,16.58
2017-11-15T21:59:23.653Z,15.30
2017-11-15T22:01:51.212Z,15.57
2017-11-15T22:04:18.743Z,17.40
2017-11-15T22:06:46.341Z,19.48
2017-11-15T22:09:13.905Z,15.82
2017-11-15T22:11:41.481Z,21.65
2017-11-15T22:14:09.814Z,18.23
2017-11-15T22:16:37.358Z,17.83
2017-11-15T22:19:04.920Z,16.73
2017-11-15T22:21:32.487Z,17.02
2017-11-15T22:24:00.039Z,18.35
2017-11-15T22:26:27.574Z,18.20
2017-11-15T22:28:55.152Z,18.48
2017-11-15T22:31:22.691Z,18.35
2017-11-15T22:33:50.267Z,18.65
2017-11-15T22:36:17.802Z,16.90
2017-11-15T22:38:46.117Z,16.55
2017-11-15T22:41:13.674Z,17.48
2017-11-15T22:43:41.237Z,18.98
2017-11-15T22:46:08.805Z,21.37
2017-11-15T22:48:36.343Z,17.85
2017-11-15T22:51:03.919Z,17.37
2017-11-15T22:53:31.480Z,16.23
2017-11-15T22:55:59.057Z,17.90
2017-11-15T22:58:26.617Z,18.15
2017-11-15T23:00:54.162Z,16.10
2017-11-15T23:03:21.758Z,16.05
2017-11-15T23:05:50.087Z,15.70
2017-11-15T23:08:17.658Z,15.88
2017-11-15T23:10:45.220Z,15.85
2017-11-15T23:13:12.773Z,14.98
2017-11-15T23:15:40.323Z,17.55
2017-11-15T23:18:07.881Z,16.02
2017-11-15T23:20:35.431Z,15.20
2017-11-15T23:23:03.013Z,17.37
2017-11-15T23:25:30.587Z,17.30
2017-11-15T23:27:58.117Z,15.02
2017-11-15T23:30:25.695Z,16.55
2017-11-15T23:32:53.246Z,14.77
2017-11-15T23:35:20.794Z,15.10
2017-11-15T23:37:48.371Z,17.50
2017-11-15T23:40:15.913Z,16.23
2017-11-15T23:42:44.505Z,15.00
2017-11-15T23:45:12.083Z,16.02
2017-11-15T23:47:39.657Z,18.35
2017-11-15T23:50:07.206Z,17.42
2017-11-15T23:52:34.782Z,19.33
2017-11-15T23:55:02.331Z,17.87
2017-11-15T23:57:29.932Z,21.25
2017-11-15T23:59:58.258Z,21.70
